createdAt,value
2019-05-26T00:00:47.771Z,84.36
2019-05-26T00:02:49.815Z,84.22
2019-05-26T00:04:52.081Z,84.14
2019-05-26T00:06:54.658Z,83.86
2019-05-26T00:08:56.422Z,83.84
2019-05-26T00:10:58.834Z,84.25
2019-05-26T00:13:00.685Z,84.31
2019-05-26T00:15:03.359Z,84.15
2019-05-26T00:17:05.994Z,83.83
2019-05-26T00:19:08.413Z,83.65
2019-05-26T00:21:10.635Z,83.74
2019-05-26T00:23:12.699Z,83.62
2019-05-26T00:25:22.484Z,83.20
2019-05-26T00:27:24.816Z,83.48
2019-05-26T00:29:27.234Z,82.92
2019-05-26T00:31:35.486Z,82.82
2019-05-26T00:33:37.785Z,83.05
2019-05-26T00:35:40.033Z,83.30
2019-05-26T00:37:50.564Z,83.18
2019-05-26T00:39:46.231Z,82.68
2019-05-26T00:41:48.328Z,82.47
2019-05-26T00:43:50.528Z,82.45
2019-05-26T00:45:52.671Z,82.37
2019-05-26T00:47:54.701Z,82.48
2019-05-26T00:49:56.902Z,82.54
2019-05-26T00:51:59.008Z,81.93
2019-05-26T00:54:01.149Z,82.37
2019-05-26T00:56:03.745Z,81.97
2019-05-26T00:58:06.025Z,82.54
2019-05-26T01:00:08.542Z,82.71
2019-05-26T01:02:10.922Z,82.62
2019-05-26T01:04:12.959Z,82.93
2019-05-26T01:06:15.096Z,82.59
2019-05-26T01:08:17.315Z,82.52
2019-05-26T01:10:19.354Z,82.60
2019-05-26T01:12:21.480Z,83.02
2019-05-26T01:14:23.910Z,82.94
2019-05-26T01:16:25.656Z,82.94
2019-05-26T01:18:28.090Z,83.35
2019-05-26T01:20:31.408Z,83.25
2019-05-26T01:22:34.700Z,83.29
2019-05-26T01:24:36.867Z,83.58
2019-05-26T01:26:39.350Z,83.52
2019-05-26T01:28:41.314Z,83.63
2019-05-26T01:30:43.830Z,83.77
2019-05-26T01:32:46.170Z,83.86
2019-05-26T01:34:51.168Z,83.76
2019-05-26T01:36:53.442Z,83.75
2019-05-26T01:39:04.321Z,83.78
2019-05-26T01:41:06.494Z,84.33
2019-05-26T01:43:08.941Z,84.04
2019-05-26T01:45:11.153Z,84.11
2019-05-26T01:47:15.323Z,84.60
2019-05-26T01:49:17.366Z,84.66
2019-05-26T01:51:19.757Z,84.43
2019-05-26T01:53:21.755Z,84.42
2019-05-26T01:55:25.959Z,84.55
2019-05-26T01:57:28.407Z,84.21
2019-05-26T01:59:30.108Z,83.83
2019-05-26T02:01:32.083Z,83.92
2019-05-26T02:03:34.285Z,83.54
2019-05-26T02:05:36.362Z,83.54
2019-05-26T02:07:38.646Z,83.14
2019-05-26T02:09:41.283Z,83.12
2019-05-26T02:11:43.547Z,82.76
2019-05-26T02:13:45.961Z,82.77
2019-05-26T02:15:48.498Z,82.61
2019-05-26T02:17:50.636Z,82.72
2019-05-26T02:19:52.691Z,82.72
2019-05-26T02:21:57.956Z,82.50
2019-05-26T02:24:00.164Z,82.47
2019-05-26T02:26:03.323Z,82.35
2019-05-26T02:28:06.300Z,81.90
2019-05-26T02:30:09.817Z,82.36
2019-05-26T02:32:11.982Z,82.18
2019-05-26T02:34:14.314Z,82.33
2019-05-26T02:36:16.544Z,82.26
2019-05-26T02:38:18.590Z,81.90
2019-05-26T02:40:21.342Z,82.29
2019-05-26T02:42:23.813Z,82.24
2019-05-26T02:44:25.620Z,82.67
2019-05-26T02:46:27.802Z,82.06
2019-05-26T02:48:29.879Z,82.21
2019-05-26T02:50:31.966Z,81.87
2019-05-26T02:52:34.423Z,82.06
2019-05-26T02:54:36.155Z,82.16
2019-05-26T02:56:38.666Z,82.32
2019-05-26T02:58:41.432Z,82.46
2019-05-26T03:00:44.396Z,82.50
2019-05-26T03:02:46.452Z,82.37
2019-05-26T03:04:49.079Z,82.36
2019-05-26T03:06:52.630Z,82.36
2019-05-26T03:08:57.377Z,82.28
2019-05-26T03:11:01.184Z,82.27
2019-05-26T03:13:04.181Z,81.95
2019-05-26T03:15:09.849Z,82.13
2019-05-26T03:17:12.481Z,82.19
2019-05-26T03:19:17.773Z,82.01
2019-05-26T03:21:21.396Z,82.26
2019-05-26T03:23:27.373Z,82.36
2019-05-26T03:25:31.888Z,82.10
2019-05-26T03:27:33.973Z,81.93
2019-05-26T03:29:36.112Z,81.88
2019-05-26T03:31:38.277Z,81.78
2019-05-26T03:33:40.443Z,81.81
2019-05-26T03:35:42.723Z,82.11
2019-05-26T03:37:45.957Z,82.00
2019-05-26T03:39:48.151Z,82.18
2019-05-26T03:41:52.234Z,81.97
2019-05-26T03:43:54.242Z,81.92
2019-05-26T03:46:19.341Z,82.07
2019-05-26T03:48:21.595Z,82.52
2019-05-26T03:50:23.880Z,82.32
2019-05-26T03:52:26.142Z,82.15
2019-05-26T03:54:28.408Z,82.34
2019-05-26T03:56:33.147Z,82.48
2019-05-26T03:58:35.307Z,82.37
2019-05-26T04:00:37.594Z,82.22
2019-05-26T04:02:39.640Z,82.14
2019-05-26T04:04:41.682Z,82.32
2019-05-26T04:06:44.151Z,82.36
2019-05-26T04:08:45.863Z,82.46
2019-05-26T04:10:47.907Z,82.32
2019-05-26T04:12:50.441Z,82.39
2019-05-26T04:14:52.026Z,82.26
2019-05-26T04:16:57.769Z,82.24
2019-05-26T04:19:00.205Z,82.16
2019-05-26T04:21:01.898Z,82.26
2019-05-26T04:23:05.084Z,82.56
2019-05-26T04:25:08.453Z,82.78
2019-05-26T04:27:10.657Z,82.62
2019-05-26T04:29:12.722Z,82.07
2019-05-26T04:31:15.456Z,82.57
2019-05-26T04:33:17.666Z,82.97
2019-05-26T04:35:19.846Z,82.70
2019-05-26T04:37:22.174Z,83.10
2019-05-26T04:39:24.188Z,83.43
2019-05-26T04:41:26.236Z,83.30
2019-05-26T04:43:28.537Z,83.55
2019-05-26T04:45:30.841Z,83.25
2019-05-26T04:47:32.949Z,83.15
2019-05-26T04:49:37.587Z,82.89
2019-05-26T04:51:42.079Z,83.03
2019-05-26T04:53:44.387Z,83.09
2019-05-26T04:55:46.536Z,83.12
2019-05-26T04:57:48.679Z,83.00
2019-05-26T04:59:50.723Z,83.07
2019-05-26T05:01:53.069Z,83.16
2019-05-26T05:03:55.610Z,83.07
2019-05-26T05:05:57.405Z,82.23
2019-05-26T05:08:00.358Z,82.59
2019-05-26T05:10:02.605Z,82.47
2019-05-26T05:12:05.910Z,82.62
2019-05-26T05:14:08.181Z,82.18
2019-05-26T05:16:11.351Z,82.31
2019-05-26T05:18:13.965Z,82.02
2019-05-26T05:20:16.718Z,81.90
2019-05-26T05:22:18.881Z,81.96
2019-05-26T05:24:20.921Z,82.06
2019-05-26T05:26:24.138Z,82.12
2019-05-26T05:28:26.179Z,81.87
2019-05-26T05:30:28.392Z,81.28
2019-05-26T05:32:33.018Z,81.48
2019-05-26T05:34:34.681Z,80.59
2019-05-26T05:36:41.687Z,80.80
2019-05-26T05:38:44.547Z,80.61
2019-05-26T05:40:58.841Z,80.71
2019-05-26T05:42:50.744Z,81.11
2019-05-26T05:44:53.176Z,81.17
2019-05-26T05:46:55.230Z,80.96
2019-05-26T05:48:57.830Z,80.49
2019-05-26T05:51:00.150Z,80.71
2019-05-26T05:53:02.240Z,80.81
2019-05-26T05:55:05.195Z,80.75
2019-05-26T05:57:07.564Z,80.94
2019-05-26T05:59:09.789Z,80.83
2019-05-26T06:01:12.146Z,80.67
2019-05-26T06:03:17.905Z,80.27
2019-05-26T06:05:18.452Z,79.62
2019-05-26T06:07:20.785Z,79.07
2019-05-26T06:09:24.341Z,79.16
2019-05-26T06:11:26.520Z,78.65
2019-05-26T06:13:28.582Z,77.41
2019-05-26T06:15:33.291Z,76.68
2019-05-26T06:17:35.687Z,76.69
2019-05-26T06:19:37.806Z,75.71
2019-05-26T06:21:40.297Z,76.24
2019-05-26T06:23:42.016Z,74.67
2019-05-26T06:25:44.141Z,73.92
2019-05-26T06:27:46.760Z,74.50
2019-05-26T06:29:58.581Z,74.48
2019-05-26T06:31:53.102Z,74.20
2019-05-26T06:33:55.634Z,74.01
2019-05-26T06:35:57.863Z,74.34
2019-05-26T06:38:01.101Z,73.97
2019-05-26T06:40:04.631Z,73.46
2019-05-26T06:42:07.072Z,74.16
2019-05-26T06:44:08.998Z,74.65
2019-05-26T06:46:15.086Z,74.60
2019-05-26T06:48:18.736Z,73.75
2019-05-26T06:50:24.317Z,73.52
2019-05-26T06:52:39.469Z,73.82
2019-05-26T06:54:40.773Z,73.25
2019-05-26T06:56:42.809Z,73.28
2019-05-26T06:58:45.668Z,72.97
2019-05-26T07:00:47.733Z,71.98
2019-05-26T07:02:49.749Z,71.31
2019-05-26T07:04:51.955Z,71.58
2019-05-26T07:06:54.157Z,72.13
2019-05-26T07:08:58.014Z,72.35
2019-05-26T07:11:00.499Z,72.70
2019-05-26T07:13:02.255Z,72.45
2019-05-26T07:15:05.135Z,71.10
2019-05-26T07:17:07.864Z,71.32
2019-05-26T07:19:09.979Z,71.50
2019-05-26T07:21:11.979Z,71.27
2019-05-26T07:23:14.314Z,71.05
2019-05-26T07:25:16.612Z,69.51
2019-05-26T07:27:18.655Z,69.32
2019-05-26T07:29:21.158Z,69.41
2019-05-26T07:31:23.873Z,68.32
2019-05-26T07:33:25.881Z,67.92
2019-05-26T07:35:28.111Z,67.22
2019-05-26T07:37:30.202Z,68.45
2019-05-26T07:39:32.358Z,68.81
2019-05-26T07:41:34.612Z,68.46
2019-05-26T07:43:36.698Z,68.58
2019-05-26T07:45:38.782Z,69.03
2019-05-26T07:47:41.307Z,68.00
2019-05-26T07:49:43.061Z,67.74
2019-05-26T07:51:46.404Z,67.44
2019-05-26T07:53:48.670Z,67.44
2019-05-26T07:55:50.920Z,67.88
2019-05-26T07:57:52.981Z,68.33
2019-05-26T07:59:55.125Z,68.20
2019-05-26T08:01:57.234Z,67.87
2019-05-26T08:03:59.366Z,67.20
2019-05-26T08:06:01.543Z,66.46
2019-05-26T08:08:12.730Z,66.94
2019-05-26T08:10:09.282Z,66.82
2019-05-26T08:12:25.121Z,66.99
2019-05-26T08:14:15.718Z,66.42
2019-05-26T08:16:17.772Z,65.98
2019-05-26T08:18:20.060Z,64.73
2019-05-26T08:20:23.082Z,64.79
2019-05-26T08:22:25.166Z,65.73
2019-05-26T08:24:27.377Z,65.40
2019-05-26T08:26:29.413Z,64.23
2019-05-26T08:28:31.551Z,63.34
2019-05-26T08:30:35.033Z,64.78
2019-05-26T08:32:37.187Z,65.50
2019-05-26T08:34:41.153Z,64.79
2019-05-26T08:36:43.534Z,64.80
2019-05-26T08:38:45.424Z,64.62
2019-05-26T08:40:47.467Z,64.53
2019-05-26T08:42:50.335Z,63.66
2019-05-26T08:44:52.395Z,64.23
2019-05-26T08:46:54.393Z,64.91
2019-05-26T08:48:56.625Z,64.54
2019-05-26T08:50:58.720Z,64.27
2019-05-26T08:53:00.941Z,65.00
2019-05-26T08:55:03.583Z,64.97
2019-05-26T08:57:05.269Z,64.49
2019-05-26T08:59:07.342Z,64.41
2019-05-26T09:01:09.754Z,63.34
2019-05-26T09:03:11.509Z,64.01
2019-05-26T09:05:14.115Z,64.46
2019-05-26T09:07:16.504Z,64.95
2019-05-26T09:09:18.742Z,64.25
2019-05-26T09:11:21.129Z,63.34
2019-05-26T09:13:24.340Z,64.15
2019-05-26T09:15:26.397Z,63.68
2019-05-26T09:17:28.523Z,64.57
2019-05-26T09:19:33.932Z,63.88
2019-05-26T09:21:36.197Z,63.43
2019-05-26T09:23:38.447Z,63.70
2019-05-26T09:25:42.136Z,63.20
2019-05-26T09:27:45.421Z,62.26
2019-05-26T09:29:47.470Z,60.34
2019-05-26T09:31:49.767Z,61.06
2019-05-26T09:33:51.933Z,60.98
2019-05-26T09:35:54.805Z,59.46
2019-05-26T09:37:57.183Z,59.49
2019-05-26T09:40:03.057Z,58.61
2019-05-26T09:42:05.060Z,59.22
2019-05-26T09:44:07.361Z,58.22
2019-05-26T09:46:09.727Z,58.84
2019-05-26T09:48:11.759Z,59.48
2019-05-26T09:50:15.459Z,59.27
2019-05-26T09:52:17.998Z,58.48
2019-05-26T09:54:19.549Z,58.05
2019-05-26T09:56:21.995Z,58.84
2019-05-26T09:58:23.766Z,59.49
2019-05-26T10:00:25.931Z,59.94
2019-05-26T10:02:28.677Z,60.22
2019-05-26T10:04:30.779Z,59.38
2019-05-26T10:06:32.807Z,58.42
2019-05-26T10:08:35.087Z,58.42
2019-05-26T10:10:39.092Z,58.99
2019-05-26T10:12:41.204Z,58.10
2019-05-26T10:14:43.410Z,58.11
2019-05-26T10:16:45.847Z,58.32
2019-05-26T10:18:47.545Z,58.61
2019-05-26T10:20:50.834Z,58.44
2019-05-26T10:22:52.888Z,57.70
2019-05-26T10:24:54.999Z,57.36
2019-05-26T10:26:57.413Z,56.66
2019-05-26T10:29:00.666Z,57.52
2019-05-26T10:31:03.183Z,57.91
2019-05-26T10:33:05.559Z,58.47
2019-05-26T10:35:08.294Z,58.27
2019-05-26T10:37:10.712Z,58.60
2019-05-26T10:39:15.280Z,58.90
2019-05-26T10:41:17.424Z,58.42
2019-05-26T10:43:20.693Z,57.49
2019-05-26T10:45:23.175Z,56.27
2019-05-26T10:47:25.526Z,56.22
2019-05-26T10:51:51.100Z,56.57
2019-05-26T10:53:53.305Z,55.52
2019-05-26T10:55:55.464Z,56.58
2019-05-26T10:57:59.593Z,57.00
2019-05-26T11:00:02.357Z,56.79
2019-05-26T11:02:04.716Z,56.70
2019-05-26T11:04:07.228Z,56.90
2019-05-26T11:06:09.291Z,57.85
2019-05-26T11:08:11.631Z,57.78
2019-05-26T11:10:14.066Z,58.54
2019-05-26T11:12:16.415Z,58.70
2019-05-26T11:14:18.662Z,59.05
2019-05-26T11:16:22.545Z,58.04
2019-05-26T11:18:25.531Z,57.84
2019-05-26T11:20:29.141Z,57.73
2019-05-26T11:22:31.850Z,57.92
2019-05-26T11:24:34.194Z,57.64
2019-05-26T11:26:37.904Z,58.39
2019-05-26T11:28:42.678Z,59.64
2019-05-26T11:30:45.228Z,58.63
2019-05-26T11:32:47.391Z,59.21
2019-05-26T11:35:01.107Z,59.60
2019-05-26T11:36:54.740Z,58.73
2019-05-26T11:38:56.809Z,58.29
2019-05-26T11:40:59.807Z,59.13
2019-05-26T11:43:15.633Z,58.68
2019-05-26T11:45:08.369Z,57.32
2019-05-26T11:47:11.042Z,57.07
2019-05-26T11:49:14.059Z,56.51
2019-05-26T11:51:16.357Z,56.87
2019-05-26T11:53:18.430Z,57.18
2019-05-26T11:55:20.650Z,57.07
2019-05-26T11:57:23.061Z,56.20
2019-05-26T11:59:25.421Z,56.31
2019-05-26T12:01:27.231Z,56.20
2019-05-26T12:03:29.809Z,56.47
2019-05-26T12:05:33.308Z,57.92
2019-05-26T12:07:35.349Z,58.49
2019-05-26T12:09:37.545Z,59.03
2019-05-26T12:11:40.362Z,58.75
2019-05-26T12:13:42.365Z,57.38
2019-05-26T12:15:50.933Z,56.87
2019-05-26T12:18:09.131Z,57.09
2019-05-26T12:23:02.547Z,57.02
2019-05-26T12:25:05.420Z,58.34
2019-05-26T12:27:07.594Z,58.33
2019-05-26T12:31:58.093Z,58.15
2019-05-26T12:32:23.719Z,57.89
2019-05-26T12:34:27.095Z,58.96
2019-05-26T12:36:30.643Z,58.58
2019-05-26T12:38:36.124Z,57.92
2019-05-26T12:40:38.424Z,58.45
2019-05-26T12:42:40.997Z,57.59
2019-05-26T12:44:49.596Z,57.23
2019-05-26T12:46:48.310Z,56.54
2019-05-26T12:48:50.956Z,56.39
2019-05-26T12:50:52.897Z,55.99
2019-05-26T12:52:55.139Z,56.75
2019-05-26T12:54:57.619Z,56.80
2019-05-26T12:57:00.406Z,56.62
2019-05-26T12:59:04.675Z,54.97
2019-05-26T13:01:07.147Z,55.85
2019-05-26T13:03:09.800Z,55.81
2019-05-26T13:05:14.436Z,55.47
2019-05-26T13:07:17.102Z,54.75
2019-05-26T13:09:20.543Z,54.92
2019-05-26T13:11:23.072Z,55.09
2019-05-26T13:13:25.103Z,55.79
2019-05-26T13:15:28.696Z,54.80
2019-05-26T13:17:33.913Z,55.28
2019-05-26T13:19:36.623Z,55.42
2019-05-26T13:21:39.049Z,55.60
2019-05-26T13:23:41.336Z,55.46
2019-05-26T13:25:45.545Z,55.43
2019-05-26T13:27:48.675Z,57.13
2019-05-26T13:29:51.117Z,56.70
2019-05-26T13:31:53.324Z,56.89
2019-05-26T13:33:56.274Z,57.53
2019-05-26T13:35:58.611Z,56.86
2019-05-26T13:38:01.026Z,56.25
2019-05-26T13:40:04.718Z,56.47
2019-05-26T13:42:06.934Z,55.76
2019-05-26T13:44:09.055Z,56.46
2019-05-26T13:46:11.294Z,57.28
2019-05-26T13:48:13.806Z,57.62
2019-05-26T13:50:16.681Z,58.23
2019-05-26T13:52:19.078Z,57.93
2019-05-26T13:54:21.264Z,56.86
2019-05-26T13:56:23.531Z,56.82
2019-05-26T13:58:25.856Z,57.27
2019-05-26T14:00:28.278Z,56.92
2019-05-26T14:02:31.790Z,56.38
2019-05-26T14:04:34.155Z,54.97
2019-05-26T14:06:36.370Z,54.38
2019-05-26T14:08:38.726Z,54.10
2019-05-26T14:10:40.716Z,54.18
2019-05-26T14:12:43.399Z,54.75
2019-05-26T14:14:45.916Z,54.18
2019-05-26T14:16:50.840Z,53.08
2019-05-26T14:18:55.315Z,52.91
2019-05-26T14:20:57.553Z,52.83
2019-05-26T14:22:59.894Z,52.83
2019-05-26T14:25:01.919Z,51.57
2019-05-26T14:27:04.300Z,51.24
2019-05-26T14:29:06.024Z,50.71
2019-05-26T14:31:08.138Z,50.80
2019-05-26T14:33:10.754Z,50.38
2019-05-26T14:35:15.785Z,50.71
2019-05-26T14:37:17.894Z,51.03
2019-05-26T14:39:20.262Z,52.09
2019-05-26T14:41:24.086Z,52.83
2019-05-26T14:43:26.887Z,52.47
2019-05-26T14:45:29.185Z,51.35
2019-05-26T14:47:31.468Z,51.57
2019-05-26T14:49:34.144Z,51.41
2019-05-26T14:51:36.623Z,52.05
2019-05-26T14:53:39.643Z,51.85
2019-05-26T14:55:42.092Z,52.61
2019-05-26T14:57:47.821Z,51.87
2019-05-26T14:59:50.690Z,52.26
2019-05-26T15:01:52.776Z,51.87
2019-05-26T15:03:55.104Z,52.31
2019-05-26T15:06:05.801Z,52.62
2019-05-26T15:08:01.786Z,53.27
2019-05-26T15:10:07.039Z,53.06
2019-05-26T15:12:09.965Z,53.16
2019-05-26T15:14:15.224Z,54.14
2019-05-26T15:16:19.445Z,54.21
2019-05-26T15:18:22.253Z,54.22
2019-05-26T15:20:25.017Z,54.20
2019-05-26T15:22:27.220Z,54.99
2019-05-26T15:24:29.804Z,55.55
2019-05-26T15:26:31.543Z,56.28
2019-05-26T15:28:33.930Z,56.74
2019-05-26T15:30:36.714Z,57.33
2019-05-26T15:32:40.227Z,57.00
2019-05-26T15:34:45.404Z,56.78
2019-05-26T15:36:48.699Z,56.91
2019-05-26T15:38:50.878Z,56.56
2019-05-26T15:40:53.610Z,56.45
2019-05-26T15:42:55.837Z,55.82
2019-05-26T15:44:58.923Z,55.56
2019-05-26T15:47:01.000Z,55.94
2019-05-26T15:49:03.286Z,56.45
2019-05-26T15:51:05.383Z,57.00
2019-05-26T15:53:07.499Z,57.37
2019-05-26T15:55:11.237Z,56.59
2019-05-26T15:57:14.676Z,55.47
2019-05-26T15:59:17.793Z,55.41
2019-05-26T16:01:19.948Z,55.08
2019-05-26T16:03:22.208Z,54.66
2019-05-26T16:05:24.700Z,55.13
2019-05-26T16:07:26.798Z,55.55
2019-05-26T16:09:29.479Z,55.57
2019-05-26T16:11:31.600Z,55.62
2019-05-26T16:13:34.443Z,56.58
2019-05-26T16:15:36.727Z,56.88
2019-05-26T16:17:40.367Z,57.15
2019-05-26T16:19:42.892Z,57.57
2019-05-26T16:21:45.934Z,57.69
2019-05-26T16:23:48.987Z,57.77
2019-05-26T16:25:51.544Z,58.09
2019-05-26T16:27:53.556Z,58.16
2019-05-26T16:29:55.822Z,58.24
2019-05-26T16:31:59.238Z,58.10
2019-05-26T16:34:01.721Z,57.94
2019-05-26T16:36:04.548Z,58.22
2019-05-26T16:38:07.129Z,58.70
2019-05-26T16:40:09.850Z,58.86
2019-05-26T16:42:13.045Z,58.36
2019-05-26T16:44:15.830Z,59.21
2019-05-26T16:46:19.328Z,59.32
2019-05-26T16:48:22.274Z,58.58
2019-05-26T16:50:24.868Z,58.11
2019-05-26T16:52:27.049Z,57.90
2019-05-26T16:54:29.579Z,58.48
2019-05-26T16:56:32.026Z,57.83
2019-05-26T16:58:33.907Z,59.56
2019-05-26T17:00:37.976Z,59.99
2019-05-26T17:02:40.531Z,60.66
2019-05-26T17:04:42.738Z,60.04
2019-05-26T17:06:45.044Z,59.63
2019-05-26T17:08:47.291Z,60.22
2019-05-26T17:10:52.362Z,60.16
2019-05-26T17:12:54.474Z,60.32
2019-05-26T17:14:56.545Z,60.61
2019-05-26T17:17:13.529Z,61.25
2019-05-26T17:19:03.046Z,62.22
2019-05-26T17:21:04.878Z,62.32
2019-05-26T17:23:06.958Z,62.53
2019-05-26T17:25:09.535Z,62.53
2019-05-26T17:27:11.585Z,62.23
2019-05-26T17:29:13.964Z,62.33
2019-05-26T17:31:18.002Z,62.76
2019-05-26T17:33:20.371Z,62.48
2019-05-26T17:35:22.578Z,62.04
2019-05-26T17:37:25.117Z,62.22
2019-05-26T17:39:27.568Z,61.51
2019-05-26T17:41:29.699Z,61.56
2019-05-26T17:43:32.178Z,61.82
2019-05-26T17:45:37.224Z,62.73
2019-05-26T17:47:39.875Z,62.85
2019-05-26T17:49:42.422Z,63.62
2019-05-26T17:51:44.853Z,64.33
2019-05-26T17:53:46.562Z,64.65
2019-05-26T17:55:49.233Z,65.51
2019-05-26T17:57:53.441Z,67.35
2019-05-26T17:59:55.808Z,69.83
2019-05-26T18:01:58.102Z,72.34
2019-05-26T18:04:01.264Z,73.31
2019-05-26T18:06:03.827Z,75.71
2019-05-26T18:08:06.266Z,76.71
2019-05-26T18:10:09.757Z,77.35
2019-05-26T18:12:13.138Z,77.74
2019-05-26T18:14:16.818Z,77.69
2019-05-26T18:16:21.480Z,76.82
2019-05-26T18:18:23.723Z,77.22
2019-05-26T18:20:27.341Z,76.09
2019-05-26T18:22:30.069Z,76.55
2019-05-26T18:24:32.391Z,77.68
2019-05-26T18:26:36.175Z,77.60
2019-05-26T18:28:38.585Z,77.28
2019-05-26T18:30:41.540Z,78.23
2019-05-26T18:32:43.817Z,77.21
2019-05-26T18:34:46.188Z,78.74
2019-05-26T18:36:48.870Z,78.74
2019-05-26T18:38:51.013Z,79.40
2019-05-26T18:40:53.512Z,79.67
2019-05-26T18:42:55.879Z,81.01
2019-05-26T18:44:58.611Z,81.23
2019-05-26T18:47:00.939Z,82.50
2019-05-26T18:49:03.077Z,82.68
2019-05-26T18:51:05.351Z,82.59
2019-05-26T18:53:07.918Z,82.88
2019-05-26T18:55:10.244Z,82.88
2019-05-26T18:57:12.431Z,83.33
2019-05-26T18:59:14.788Z,83.26
2019-05-26T19:01:16.933Z,82.73
2019-05-26T19:03:19.906Z,83.03
2019-05-26T19:05:33.104Z,83.39
2019-05-26T19:07:26.491Z,83.51
2019-05-26T19:09:28.825Z,83.65
2019-05-26T19:11:31.303Z,83.87
2019-05-26T19:13:35.597Z,84.10
2019-05-26T19:15:37.735Z,85.91
2019-05-26T19:17:40.891Z,85.76
2019-05-26T19:19:43.450Z,86.70
2019-05-26T19:21:45.903Z,86.10
2019-05-26T19:23:48.791Z,87.45
2019-05-26T19:25:51.248Z,87.37
2019-05-26T19:27:53.031Z,87.87
2019-05-26T19:29:55.783Z,87.95
2019-05-26T19:31:58.202Z,87.87
2019-05-26T19:34:00.531Z,88.58
2019-05-26T19:36:09.107Z,88.70
2019-05-26T19:38:07.874Z,88.47
2019-05-26T19:40:29.626Z,88.38
2019-05-26T19:42:32.141Z,88.47
2019-05-26T19:44:34.082Z,89.12
2019-05-26T19:46:36.430Z,89.34
2019-05-26T19:48:38.903Z,89.13
2019-05-26T19:50:40.725Z,89.17
2019-05-26T19:52:43.024Z,89.54
2019-05-26T19:54:45.702Z,89.85
2019-05-26T19:56:48.347Z,89.36
2019-05-26T19:58:50.112Z,89.59
2019-05-26T20:00:52.313Z,89.59
2019-05-26T20:02:54.494Z,89.61
2019-05-26T20:04:56.668Z,89.64
2019-05-26T20:06:59.033Z,89.60
2019-05-26T20:09:01.174Z,89.43
2019-05-26T20:11:03.910Z,88.99
2019-05-26T20:13:06.519Z,89.28
2019-05-26T20:15:09.102Z,89.18
2019-05-26T20:17:11.561Z,89.37
2019-05-26T20:19:13.688Z,89.84
2019-05-26T20:21:16.034Z,90.46
2019-05-26T20:23:18.238Z,90.81
2019-05-26T20:25:20.551Z,90.59
2019-05-26T20:27:22.596Z,90.32
2019-05-26T20:29:26.913Z,90.31
2019-05-26T20:31:30.819Z,90.41
2019-05-26T20:33:33.839Z,90.60
2019-05-26T20:35:36.326Z,90.48
2019-05-26T20:37:38.657Z,90.26
2019-05-26T20:39:40.826Z,90.29
2019-05-26T20:41:43.133Z,90.18
2019-05-26T20:43:45.940Z,90.15
2019-05-26T20:45:48.107Z,90.31
2019-05-26T20:47:50.260Z,90.51
2019-05-26T20:49:52.841Z,90.38
2019-05-26T20:51:55.107Z,90.41
2019-05-26T20:53:58.468Z,90.62
2019-05-26T20:56:00.705Z,90.31
2019-05-26T20:58:03.006Z,90.13
2019-05-26T21:00:06.194Z,90.25
2019-05-26T21:02:08.437Z,90.21
2019-05-26T21:04:10.735Z,90.06
2019-05-26T21:06:13.949Z,90.67
2019-05-26T21:08:20.006Z,90.69
2019-05-26T21:10:23.583Z,90.50
2019-05-26T21:12:25.836Z,90.38
2019-05-26T21:14:28.365Z,89.83
2019-05-26T21:16:30.448Z,90.30
2019-05-26T21:18:32.533Z,90.03
2019-05-26T21:20:34.847Z,89.96
2019-05-26T21:22:37.026Z,89.87
2019-05-26T21:24:39.215Z,90.12
2019-05-26T21:26:41.866Z,90.12
2019-05-26T21:28:43.990Z,89.92
2019-05-26T21:30:47.307Z,90.48
2019-05-26T21:32:49.553Z,90.54
2019-05-26T21:34:51.647Z,90.82
2019-05-26T21:36:53.922Z,90.82
2019-05-26T21:38:57.190Z,90.95
2019-05-26T21:40:59.282Z,90.99
2019-05-26T21:43:01.341Z,91.09
2019-05-26T21:45:04.534Z,91.46
2019-05-26T21:47:06.602Z,91.49
2019-05-26T21:49:08.860Z,91.48
2019-05-26T21:51:11.258Z,91.52
2019-05-26T21:53:14.438Z,91.30
2019-05-26T21:55:17.126Z,91.07
2019-05-26T21:57:24.905Z,91.60
2019-05-26T21:59:27.209Z,91.89
2019-05-26T22:01:29.224Z,91.85
2019-05-26T22:03:31.559Z,91.85
2019-05-26T22:05:33.585Z,92.09
2019-05-26T22:07:35.933Z,92.20
2019-05-26T22:09:38.136Z,91.99
2019-05-26T22:11:40.321Z,91.82
2019-05-26T22:13:42.353Z,92.09
2019-05-26T22:15:45.557Z,92.28
2019-05-26T22:20:13.147Z,91.72
2019-05-26T22:22:15.009Z,92.04
2019-05-26T22:24:17.110Z,92.44
2019-05-26T22:26:19.395Z,92.20
2019-05-26T22:28:22.210Z,92.10
2019-05-26T22:30:24.241Z,92.10
2019-05-26T22:32:26.375Z,91.66
2019-05-26T22:34:28.612Z,91.23
2019-05-26T22:36:30.649Z,91.03
2019-05-26T22:38:32.685Z,90.94
2019-05-26T22:40:34.992Z,91.24
2019-05-26T22:42:37.031Z,91.84
2019-05-26T22:44:39.442Z,91.83
2019-05-26T22:46:41.448Z,92.05
2019-05-26T22:48:43.576Z,92.10
2019-05-26T22:50:45.623Z,92.27
2019-05-26T22:52:47.757Z,92.00
2019-05-26T22:54:49.823Z,91.57
2019-05-26T22:56:51.957Z,91.59
2019-05-26T22:58:54.314Z,91.32
2019-05-26T23:00:56.555Z,90.94
2019-05-26T23:02:58.720Z,90.43
2019-05-26T23:05:00.982Z,90.77
2019-05-26T23:07:03.150Z,90.69
2019-05-26T23:09:05.367Z,91.04
2019-05-26T23:11:07.980Z,91.25
2019-05-26T23:13:11.931Z,91.05
2019-05-26T23:15:14.239Z,90.92
2019-05-26T23:17:16.504Z,90.86
2019-05-26T23:19:20.271Z,89.67
2019-05-26T23:21:22.496Z,89.84
2019-05-26T23:23:25.153Z,88.73
2019-05-26T23:25:27.205Z,88.74
2019-05-26T23:27:29.288Z,88.99
2019-05-26T23:29:31.636Z,88.75
2019-05-26T23:31:34.851Z,88.51
2019-05-26T23:33:36.873Z,88.77
2019-05-26T23:35:39.074Z,88.70
2019-05-26T23:37:41.222Z,88.78
2019-05-26T23:39:43.308Z,87.83
2019-05-26T23:41:45.747Z,87.09
2019-05-26T23:43:47.506Z,86.45
2019-05-26T23:45:49.649Z,86.72
2019-05-26T23:47:52.040Z,87.50
2019-05-26T23:49:53.808Z,88.75
2019-05-26T23:52:04.762Z,87.46
2019-05-26T23:54:08.251Z,87.24
2019-05-26T23:56:10.442Z,87.60
2019-05-26T23:58:12.458Z,87.46
